createdAt,value
2017-05-21T00:00:08.197Z,31.1
2017-05-21T00:01:08.251Z,31.1
2017-05-21T00:02:08.279Z,31.1
2017-05-21T00:03:10.214Z,31.1
2017-05-21T00:04:10.234Z,31.1
2017-05-21T00:05:10.387Z,31.1
2017-05-21T00:06:08.488Z,31.1
2017-05-21T00:07:08.433Z,31.1
2017-05-21T00:08:10.386Z,31.1
2017-05-21T00:09:08.623Z,31.1
2017-05-21T00:10:10.631Z,31.1
2017-05-21T00:11:10.685Z,31.1
2017-05-21T00:12:10.691Z,31.1
2017-05-21T00:13:08.835Z,31.1
2017-05-21T00:14:10.813Z,31.1
2017-05-21T00:15:08.998Z,31.1
2017-05-21T00:16:09.012Z,31.1
2017-05-21T00:17:10.975Z,31.1
2017-05-21T00:18:11.014Z,31.1
2017-05-21T00:19:09.138Z,31.1
2017-05-21T00:20:09.162Z,31.1
2017-05-21T00:21:09.182Z,31.1
2017-05-21T00:22:09.318Z,31.1
2017-05-21T00:23:09.369Z,31.1
2017-05-21T00:24:11.286Z,31.1
2017-05-21T00:25:09.433Z,31.1
2017-05-21T00:26:09.553Z,31.1
2017-05-21T00:27:09.562Z,31.1
2017-05-21T00:28:09.586Z,31.1
2017-05-21T00:29:11.617Z,31.1
2017-05-21T00:30:09.807Z,31.1
2017-05-21T00:31:11.655Z,31.1
2017-05-21T00:32:11.685Z,31.1
2017-05-21T00:33:11.816Z,31.1
2017-05-21T00:34:11.809Z,31.1
2017-05-21T00:35:11.942Z,31.1
2017-05-21T00:36:11.932Z,31.1
2017-05-21T00:37:11.997Z,31.1
2017-05-21T00:38:12.097Z,31.1
2017-05-21T00:39:12.217Z,31.1
2017-05-21T00:40:10.200Z,31.1
2017-05-21T00:41:10.205Z,31.1
2017-05-21T00:42:12.227Z,31.1
2017-05-21T00:43:12.329Z,31.1
2017-05-21T00:44:10.419Z,31.1
2017-05-21T00:45:10.448Z,31.1
2017-05-21T00:46:12.314Z,31.1
2017-05-21T00:47:10.418Z,31.1
2017-05-21T00:48:10.484Z,31.1
2017-05-21T00:49:12.546Z,31.1
2017-05-21T00:50:12.553Z,31.1
2017-05-21T00:51:10.763Z,31.1
2017-05-21T00:52:10.693Z,31.1
2017-05-21T00:53:10.833Z,31.1
2017-05-21T00:54:12.816Z,31.1
2017-05-21T00:55:10.803Z,31.1
2017-05-21T00:56:10.811Z,31.1
2017-05-21T00:57:10.809Z,31.1
2017-05-21T00:58:10.901Z,31.1
2017-05-21T00:59:12.862Z,31.1
2017-05-21T01:00:12.967Z,31.1
2017-05-21T01:01:11.024Z,31.1
2017-05-21T01:02:12.998Z,31.1
2017-05-21T01:03:13.122Z,31.1
2017-05-21T01:04:13.136Z,31.1
2017-05-21T01:05:11.330Z,31.1
2017-05-21T01:06:13.334Z,31.1
2017-05-21T01:07:13.456Z,31.1
2017-05-21T01:08:11.528Z,31.1
2017-05-21T01:09:11.511Z,31.1
2017-05-21T01:10:13.545Z,31.1
2017-05-21T01:11:13.592Z,31.1
2017-05-21T01:12:11.796Z,31.1
2017-05-21T01:13:13.795Z,31.1
2017-05-21T01:14:11.844Z,31.1
2017-05-21T01:15:13.722Z,31.1
2017-05-21T01:16:11.913Z,31.1
2017-05-21T01:17:13.950Z,31.1
2017-05-21T01:18:12.032Z,31.1
2017-05-21T01:19:12.128Z,31.1
2017-05-21T01:20:13.971Z,31.1
2017-05-21T01:21:14.015Z,31.1
2017-05-21T01:22:14.077Z,31.1
2017-05-21T01:23:14.093Z,31.1
2017-05-21T01:24:14.210Z,31.1
2017-05-21T01:25:14.368Z,31.1
2017-05-21T01:26:12.250Z,31.1
2017-05-21T01:27:14.280Z,31.1
2017-05-21T01:28:12.386Z,31.1
2017-05-21T01:29:14.362Z,31.1
2017-05-21T01:30:12.549Z,31.1
2017-05-21T01:31:14.708Z,31.1
2017-05-21T01:32:14.616Z,31.1
2017-05-21T01:33:12.701Z,31.1
2017-05-21T01:34:12.710Z,31.1
2017-05-21T01:35:14.645Z,31.1
2017-05-21T01:36:14.701Z,31.1
2017-05-21T01:37:14.928Z,31.1
2017-05-21T01:38:12.961Z,31.1
2017-05-21T01:39:12.898Z,31.1
2017-05-21T01:40:14.868Z,31.1
2017-05-21T01:41:13.075Z,31.1
2017-05-21T01:42:12.994Z,31.1
2017-05-21T01:43:15.196Z,31.1
2017-05-21T01:44:13.137Z,31.1
2017-05-21T01:45:13.171Z,31.1
2017-05-21T01:46:13.159Z,31.1
2017-05-21T01:47:15.193Z,31.1
2017-05-21T01:48:13.358Z,31.1
2017-05-21T01:49:13.698Z,31.1
2017-05-21T01:50:15.916Z,31.1
2017-05-21T01:51:13.541Z,31.1
2017-05-21T01:52:13.453Z,31.1
2017-05-21T01:53:13.556Z,31.1
2017-05-21T01:54:15.578Z,31.1
2017-05-21T01:55:13.988Z,31.1
2017-05-21T01:56:15.687Z,31.1
2017-05-21T01:57:13.755Z,31.1
2017-05-21T01:58:13.945Z,31.1
2017-05-21T01:59:15.894Z,31.1
2017-05-21T02:00:13.985Z,31.1
2017-05-21T02:01:14.237Z,31.1
2017-05-21T02:02:14.026Z,31.1
2017-05-21T02:03:14.145Z,31.1
2017-05-21T02:04:14.141Z,31.1
2017-05-21T02:05:16.076Z,31.1
2017-05-21T02:06:14.203Z,31.1
2017-05-21T02:07:16.304Z,31.1
2017-05-21T02:08:16.155Z,31.1
2017-05-21T02:09:16.278Z,31.1
2017-05-21T02:10:14.382Z,31.1
2017-05-21T02:11:16.390Z,31.1
2017-05-21T02:12:14.469Z,31.1
2017-05-21T02:13:14.785Z,31.1
2017-05-21T02:14:16.519Z,31.1
2017-05-21T02:15:14.595Z,31.1
2017-05-21T02:16:14.703Z,31.1
2017-05-21T02:17:14.666Z,31.1
2017-05-21T02:18:14.848Z,31.1
2017-05-21T02:19:16.977Z,31.1
2017-05-21T02:20:14.841Z,31.1
2017-05-21T02:21:14.885Z,31.1
2017-05-21T02:22:14.848Z,31.1
2017-05-21T02:23:16.862Z,31.1
2017-05-21T02:24:16.996Z,31.1
2017-05-21T02:25:17.153Z,31.1
2017-05-21T02:26:17.032Z,31.1
2017-05-21T02:27:17.014Z,31.1
2017-05-21T02:28:15.052Z,31.1
2017-05-21T02:29:15.150Z,31.1
2017-05-21T02:30:15.235Z,31.1
2017-05-21T02:31:15.494Z,31.1
2017-05-21T02:32:17.265Z,31.1
2017-05-21T02:33:17.275Z,31.1
2017-05-21T02:34:17.322Z,31.1
2017-05-21T02:35:15.557Z,31.1
2017-05-21T02:36:17.481Z,31.1
2017-05-21T02:37:15.854Z,31.1
2017-05-21T02:38:17.596Z,31.1
2017-05-21T02:39:15.888Z,31.1
2017-05-21T02:40:17.805Z,31.1
2017-05-21T02:41:15.987Z,31.1
2017-05-21T02:42:17.979Z,31.1
2017-05-21T02:43:16.261Z,31.1
2017-05-21T02:44:17.966Z,31.1
2017-05-21T02:45:16.083Z,31.1
2017-05-21T02:46:18.124Z,31.1
2017-05-21T02:47:16.287Z,31.1
2017-05-21T02:48:18.232Z,31.1
2017-05-21T02:49:18.421Z,31.1
2017-05-21T02:50:16.457Z,31.1
2017-05-21T02:51:16.444Z,31.1
2017-05-21T02:52:18.355Z,31.1
2017-05-21T02:53:16.454Z,31.1
2017-05-21T02:54:18.453Z,31.1
2017-05-21T02:55:16.660Z,31.1
2017-05-21T02:56:16.715Z,31.1
2017-05-21T02:57:18.644Z,31.1
2017-05-21T02:58:18.745Z,31.1
2017-05-21T02:59:18.731Z,31.1
2017-05-21T03:00:18.679Z,31.1
2017-05-21T03:01:18.946Z,31.1
2017-05-21T03:02:18.798Z,31.1
2017-05-21T03:03:16.951Z,31.1
2017-05-21T03:04:17.035Z,31.1
2017-05-21T03:05:19.005Z,31.1
2017-05-21T03:06:17.123Z,31.1
2017-05-21T03:07:17.474Z,31.1
2017-05-21T03:08:17.177Z,31.1
2017-05-21T03:09:17.300Z,31.1
2017-05-21T03:10:17.230Z,31.1
2017-05-21T03:11:19.200Z,31.1
2017-05-21T03:12:17.411Z,31.1
2017-05-21T03:13:17.522Z,31.1
2017-05-21T03:14:17.487Z,31.1
2017-05-21T03:15:17.544Z,31.1
2017-05-21T03:16:17.459Z,31
2017-05-21T03:17:19.508Z,31
2017-05-21T03:18:19.591Z,31
2017-05-21T03:19:18.070Z,31
2017-05-21T03:20:19.658Z,31
2017-05-21T03:21:19.691Z,31.1
2017-05-21T03:22:19.791Z,31.1
2017-05-21T03:23:19.861Z,31.1
2017-05-21T03:24:17.996Z,31
2017-05-21T03:25:18.427Z,31
2017-05-21T03:26:18.242Z,31
2017-05-21T03:27:18.294Z,31
2017-05-21T03:28:20.162Z,31
2017-05-21T03:29:20.267Z,31
2017-05-21T03:30:18.436Z,31
2017-05-21T03:31:20.527Z,31
2017-05-21T03:32:20.348Z,31
2017-05-21T03:33:20.436Z,31
2017-05-21T03:34:18.561Z,31
2017-05-21T03:35:20.685Z,31
2017-05-21T03:36:18.608Z,31
2017-05-21T03:37:18.819Z,31
2017-05-21T03:38:18.830Z,31
2017-05-21T03:39:20.734Z,31
2017-05-21T03:40:20.851Z,31
2017-05-21T03:41:18.956Z,31
2017-05-21T03:42:20.971Z,31
2017-05-21T03:43:19.271Z,31
2017-05-21T03:44:19.141Z,31
2017-05-21T03:45:21.084Z,31
2017-05-21T03:46:21.151Z,31
2017-05-21T03:47:19.269Z,31
2017-05-21T03:48:19.218Z,31
2017-05-21T03:49:19.444Z,31
2017-05-21T03:50:19.378Z,31
2017-05-21T03:51:19.421Z,31
2017-05-21T03:52:19.399Z,31
2017-05-21T03:53:21.430Z,31
2017-05-21T03:54:19.502Z,31
2017-05-21T03:55:21.731Z,31
2017-05-21T03:56:21.617Z,31
2017-05-21T03:57:19.716Z,31
2017-05-21T03:58:19.768Z,31
2017-05-21T03:59:19.908Z,31
2017-05-21T04:00:19.870Z,31
2017-05-21T04:01:21.985Z,31
2017-05-21T04:02:19.907Z,31
2017-05-21T04:03:20.078Z,31
2017-05-21T04:04:20.011Z,31
2017-05-21T04:05:20.034Z,31
2017-05-21T04:06:22.065Z,31
2017-05-21T04:07:20.418Z,31
2017-05-21T04:08:20.256Z,31
2017-05-21T04:09:20.436Z,31
2017-05-21T04:10:20.327Z,31
2017-05-21T04:11:22.263Z,31
2017-05-21T04:12:20.612Z,31
2017-05-21T04:13:22.451Z,30.9
2017-05-21T04:14:20.661Z,30.9
2017-05-21T04:15:20.676Z,30.9
2017-05-21T04:16:20.691Z,30.9
2017-05-21T04:17:20.786Z,30.9
2017-05-21T04:18:22.873Z,30.9
2017-05-21T04:19:20.911Z,30.9
2017-05-21T04:20:22.872Z,30.9
2017-05-21T04:21:20.951Z,30.9
2017-05-21T04:22:20.946Z,30.9
2017-05-21T04:23:23.011Z,30.9
2017-05-21T04:24:23.946Z,30.9
2017-05-21T04:25:21.145Z,30.9
2017-05-21T04:26:21.219Z,30.9
2017-05-21T04:27:23.050Z,30.9
2017-05-21T04:28:21.282Z,30.9
2017-05-21T04:29:21.211Z,30.9
2017-05-21T04:30:21.458Z,30.9
2017-05-21T04:31:23.290Z,30.9
2017-05-21T04:32:21.504Z,30.9
2017-05-21T04:33:21.546Z,30.9
2017-05-21T04:34:23.430Z,30.9
2017-05-21T04:35:21.622Z,30.9
2017-05-21T04:36:23.854Z,30.9
2017-05-21T04:37:21.724Z,30.8
2017-05-21T04:38:23.601Z,30.8
2017-05-21T04:39:21.731Z,30.8
2017-05-21T04:40:21.765Z,30.8
2017-05-21T04:41:23.805Z,30.8
2017-05-21T04:42:24.035Z,30.8
2017-05-21T04:43:23.875Z,30.8
2017-05-21T04:44:24.010Z,30.8
2017-05-21T04:45:23.959Z,30.8
2017-05-21T04:46:23.990Z,30.8
2017-05-21T04:47:24.021Z,30.8
2017-05-21T04:48:22.544Z,30.8
2017-05-21T04:49:24.215Z,30.8
2017-05-21T04:50:22.387Z,30.8
2017-05-21T04:51:24.246Z,30.8
2017-05-21T04:52:24.260Z,30.8
2017-05-21T04:53:24.372Z,30.8
2017-05-21T04:54:22.672Z,30.8
2017-05-21T04:55:22.512Z,30.8
2017-05-21T04:56:24.505Z,30.8
2017-05-21T04:57:24.522Z,30.8
2017-05-21T04:58:22.700Z,30.8
2017-05-21T04:59:24.675Z,30.8
2017-05-21T05:00:22.923Z,30.7
2017-05-21T05:01:22.915Z,30.8
2017-05-21T05:02:22.940Z,30.8
2017-05-21T05:03:24.969Z,30.7
2017-05-21T05:04:25.042Z,30.7
2017-05-21T05:05:23.229Z,30.7
2017-05-21T05:06:23.416Z,30.7
2017-05-21T05:07:25.208Z,30.7
2017-05-21T05:08:25.259Z,30.7
2017-05-21T05:09:25.321Z,30.7
2017-05-21T05:10:25.430Z,30.7
2017-05-21T05:11:23.583Z,30.7
2017-05-21T05:12:25.801Z,30.7
2017-05-21T05:13:23.704Z,30.7
2017-05-21T05:14:25.672Z,30.7
2017-05-21T05:15:23.650Z,30.7
2017-05-21T05:16:23.658Z,30.7
2017-05-21T05:17:25.728Z,30.7
2017-05-21T05:18:25.924Z,30.6
2017-05-21T05:19:25.848Z,30.6
2017-05-21T05:20:25.943Z,30.6
2017-05-21T05:21:26.003Z,30.6
2017-05-21T05:22:24.108Z,30.6
2017-05-21T05:23:24.147Z,30.6
2017-05-21T05:24:26.377Z,30.6
2017-05-21T05:25:26.192Z,30.6
2017-05-21T05:26:26.230Z,30.6
2017-05-21T05:27:24.340Z,30.5
2017-05-21T05:28:26.294Z,30.5
2017-05-21T05:29:26.416Z,30.5
2017-05-21T05:30:26.628Z,30.5
2017-05-21T05:31:26.338Z,30.5
2017-05-21T05:32:24.465Z,30.5
2017-05-21T05:33:24.471Z,30.5
2017-05-21T05:34:26.501Z,30.5
2017-05-21T05:35:24.492Z,30.5
2017-05-21T05:36:24.798Z,30.5
2017-05-21T05:37:26.590Z,30.5
2017-05-21T05:38:24.672Z,30.5
2017-05-21T05:39:26.656Z,30.4
2017-05-21T05:40:26.741Z,30.4
2017-05-21T05:41:26.749Z,30.4
2017-05-21T05:42:25.130Z,30.4
2017-05-21T05:43:26.779Z,30.4
2017-05-21T05:44:24.986Z,30.4
2017-05-21T05:45:24.992Z,30.4
2017-05-21T05:46:24.993Z,30.4
2017-05-21T05:47:25.029Z,30.4
2017-05-21T05:48:25.384Z,30.4
2017-05-21T05:49:25.113Z,30.3
2017-05-21T05:50:27.023Z,30.3
2017-05-21T05:51:27.089Z,30.3
2017-05-21T05:52:27.192Z,30.3
2017-05-21T05:53:27.165Z,30.3
2017-05-21T05:54:27.491Z,30.3
2017-05-21T05:55:27.346Z,30.3
2017-05-21T05:56:25.487Z,30.2
2017-05-21T05:57:25.523Z,30.2
2017-05-21T05:58:25.574Z,30.2
2017-05-21T05:59:25.523Z,30.2
2017-05-21T06:00:25.878Z,30.2
2017-05-21T06:01:25.706Z,30.2
2017-05-21T06:02:25.752Z,30.2
2017-05-21T06:03:25.804Z,30.2
2017-05-21T06:04:25.778Z,30.2
2017-05-21T06:05:25.902Z,30.2
2017-05-21T06:06:26.084Z,30.2
2017-05-21T06:07:25.922Z,30.2
2017-05-21T06:08:25.942Z,30.1
2017-05-21T06:09:25.997Z,30.1
2017-05-21T06:10:25.939Z,30.1
2017-05-21T06:11:27.872Z,30.1
2017-05-21T06:12:26.243Z,30.1
2017-05-21T06:13:26.062Z,30.1
2017-05-21T06:14:26.231Z,30.1
2017-05-21T06:15:26.193Z,30.1
2017-05-21T06:16:28.191Z,30
2017-05-21T06:17:26.296Z,30
2017-05-21T06:18:28.529Z,30
2017-05-21T06:19:26.432Z,30
2017-05-21T06:20:28.378Z,30
2017-05-21T06:21:28.408Z,30
2017-05-21T06:22:26.518Z,30
2017-05-21T06:23:26.720Z,30
2017-05-21T06:24:28.953Z,30
2017-05-21T06:25:28.677Z,30
2017-05-21T06:26:26.851Z,30
2017-05-21T06:27:26.881Z,30
2017-05-21T06:28:26.902Z,30
2017-05-21T06:29:28.808Z,30
2017-05-21T06:30:27.189Z,29.9
2017-05-21T06:31:28.900Z,29.9
2017-05-21T06:32:26.993Z,29.9
2017-05-21T06:33:27.048Z,29.9
2017-05-21T06:34:28.992Z,30
2017-05-21T06:35:29.097Z,30
2017-05-21T06:36:27.272Z,29.9
2017-05-21T06:37:27.272Z,29.9
2017-05-21T06:38:27.319Z,29.9
2017-05-21T06:39:27.403Z,29.9
2017-05-21T06:40:27.447Z,29.9
2017-05-21T06:41:29.462Z,29.9
2017-05-21T06:42:27.541Z,29.9
2017-05-21T06:43:29.497Z,29.9
2017-05-21T06:44:29.605Z,29.9
2017-05-21T06:45:27.668Z,29.9
2017-05-21T06:46:27.770Z,29.9
2017-05-21T06:47:27.756Z,29.9
2017-05-21T06:48:29.816Z,29.9
2017-05-21T06:49:29.731Z,29.9
2017-05-21T06:50:27.866Z,29.8
2017-05-21T06:51:29.894Z,29.8
2017-05-21T06:52:28.053Z,29.8
2017-05-21T06:53:29.938Z,29.8
2017-05-21T06:54:30.074Z,29.8
2017-05-21T06:55:28.079Z,29.8
2017-05-21T06:56:30.029Z,29.8
2017-05-21T06:57:30.074Z,29.8
2017-05-21T06:58:28.192Z,29.8
2017-05-21T06:59:30.216Z,29.8
2017-05-21T07:00:28.385Z,29.8
2017-05-21T07:01:30.332Z,29.8
2017-05-21T07:02:28.506Z,29.8
2017-05-21T07:03:28.563Z,29.7
2017-05-21T07:04:28.489Z,29.7
2017-05-21T07:05:28.539Z,29.7
2017-05-21T07:06:30.484Z,29.7
2017-05-21T07:07:28.561Z,29.7
2017-05-21T07:08:28.671Z,29.7
2017-05-21T07:09:28.810Z,29.7
2017-05-21T07:10:30.632Z,29.7
2017-05-21T07:11:28.886Z,29.7
2017-05-21T07:12:30.752Z,29.7
2017-05-21T07:13:28.975Z,29.6
2017-05-21T07:14:29.057Z,29.6
2017-05-21T07:15:30.920Z,29.6
2017-05-21T07:16:29.034Z,29.6
2017-05-21T07:17:31.045Z,29.6
2017-05-21T07:18:29.114Z,29.6
2017-05-21T07:19:31.099Z,29.5
2017-05-21T07:20:31.082Z,29.5
2017-05-21T07:21:29.186Z,29.5
2017-05-21T07:22:31.119Z,29.5
2017-05-21T07:23:29.376Z,29.5
2017-05-21T07:24:29.318Z,29.5
2017-05-21T07:25:29.427Z,29.4
2017-05-21T07:26:31.329Z,29.4
2017-05-21T07:27:29.496Z,29.4
2017-05-21T07:28:31.424Z,29.4
2017-05-21T07:29:31.348Z,29.4
2017-05-21T07:30:31.370Z,29.4
2017-05-21T07:31:31.439Z,29.4
2017-05-21T07:32:29.488Z,29.4
2017-05-21T07:33:31.445Z,29.3
2017-05-21T07:34:31.573Z,29.3
2017-05-21T07:35:31.594Z,29.3
2017-05-21T07:36:29.672Z,29.3
2017-05-21T07:37:31.721Z,29.3
2017-05-21T07:38:29.779Z,29.3
2017-05-21T07:39:29.884Z,29.3
2017-05-21T07:40:30.068Z,29.2
2017-05-21T07:41:29.991Z,29.2
2017-05-21T07:42:32.030Z,29.2
2017-05-21T07:43:31.998Z,29.2
2017-05-21T07:44:30.064Z,29.2
2017-05-21T07:45:30.058Z,29.2
2017-05-21T07:46:32.192Z,29.2
2017-05-21T07:47:32.259Z,29.1
2017-05-21T07:48:30.341Z,29.1
2017-05-21T07:49:30.289Z,29.1
2017-05-21T07:50:32.239Z,29.1
2017-05-21T07:51:30.423Z,29.1
2017-05-21T07:52:30.430Z,29.1
2017-05-21T07:53:32.393Z,29.1
2017-05-21T07:54:32.407Z,29.1
2017-05-21T07:55:32.528Z,29
2017-05-21T07:56:30.674Z,29
2017-05-21T07:57:32.658Z,29
2017-05-21T07:58:32.730Z,28.9
2017-05-21T07:59:30.916Z,28.9
2017-05-21T08:00:33.614Z,28.9
2017-05-21T08:01:32.946Z,28.8
2017-05-21T08:02:32.948Z,28.8
2017-05-21T08:03:33.080Z,28.8
2017-05-21T08:04:33.155Z,28.7
2017-05-21T08:05:31.199Z,28.7
2017-05-21T08:06:33.229Z,28.7
2017-05-21T08:07:33.267Z,28.7
2017-05-21T08:08:33.348Z,28.7
2017-05-21T08:09:33.443Z,28.7
2017-05-21T08:10:33.519Z,28.7
2017-05-21T08:11:31.607Z,28.8
2017-05-21T08:12:31.647Z,28.8
2017-05-21T08:13:33.695Z,28.8
2017-05-21T08:14:31.822Z,28.8
2017-05-21T08:15:33.651Z,28.9
2017-05-21T08:16:31.832Z,28.9
2017-05-21T08:17:31.845Z,28.9
2017-05-21T08:18:33.774Z,28.9
2017-05-21T08:19:31.852Z,28.9
2017-05-21T08:20:33.938Z,28.9
2017-05-21T08:21:34.015Z,28.9
2017-05-21T08:22:32.047Z,28.9
2017-05-21T08:23:32.081Z,28.9
2017-05-21T08:24:34.118Z,28.9
2017-05-21T08:25:32.180Z,28.9
2017-05-21T08:26:34.249Z,28.9
2017-05-21T08:27:34.239Z,28.9
2017-05-21T08:28:34.374Z,29
2017-05-21T08:29:32.477Z,29
2017-05-21T08:30:32.500Z,29
2017-05-21T08:31:34.463Z,29
2017-05-21T08:32:32.534Z,29
2017-05-21T08:33:32.553Z,29
2017-05-21T08:34:38.987Z,29
2017-05-21T08:35:32.707Z,29
2017-05-21T08:36:32.806Z,29
2017-05-21T08:37:34.638Z,29
2017-05-21T08:38:34.683Z,29
2017-05-21T08:39:34.704Z,28.9
2017-05-21T08:40:32.807Z,28.8
2017-05-21T08:41:32.903Z,28.8
2017-05-21T08:42:34.908Z,28.7
2017-05-21T08:43:34.898Z,28.7
2017-05-21T08:44:33.152Z,28.7
2017-05-21T08:45:33.032Z,28.8
2017-05-21T08:46:33.168Z,28.8
2017-05-21T08:47:33.074Z,28.8
2017-05-21T08:48:35.080Z,28.9
2017-05-21T08:49:35.152Z,28.9
2017-05-21T08:50:35.232Z,28.9
2017-05-21T08:51:33.292Z,29
2017-05-21T08:52:35.314Z,29
2017-05-21T08:53:35.379Z,29
2017-05-21T08:54:33.555Z,29
2017-05-21T08:55:35.477Z,29
2017-05-21T08:56:35.555Z,29.1
2017-05-21T08:57:35.536Z,29.1
2017-05-21T08:58:33.677Z,29.1
2017-05-21T08:59:33.751Z,29.1
2017-05-21T09:00:33.759Z,29.1
2017-05-21T09:01:35.770Z,29.2
2017-05-21T09:02:35.758Z,29.2
2017-05-21T09:03:35.804Z,29.2
2017-05-21T09:04:33.951Z,29.2
2017-05-21T09:05:35.984Z,29.2
2017-05-21T09:06:34.114Z,29.2
2017-05-21T09:07:36.015Z,29.2
2017-05-21T09:08:36.067Z,29.2
2017-05-21T09:09:36.200Z,29.2
2017-05-21T09:10:34.231Z,29.2
2017-05-21T09:11:34.221Z,29.3
2017-05-21T09:12:34.369Z,29.3
2017-05-21T09:13:36.301Z,29.3
2017-05-21T09:14:34.453Z,29.3
2017-05-21T09:15:34.354Z,29.3
2017-05-21T09:16:36.415Z,29.3
2017-05-21T09:17:36.380Z,29.3
2017-05-21T09:18:34.461Z,29.2
2017-05-21T09:19:36.433Z,29.2
2017-05-21T09:20:36.544Z,29.2
2017-05-21T09:21:34.570Z,29.2
2017-05-21T09:22:36.559Z,29.2
2017-05-21T09:23:36.541Z,29.2
2017-05-21T09:24:36.578Z,29.2
2017-05-21T09:25:34.669Z,29.2
2017-05-21T09:26:36.687Z,29.2
2017-05-21T09:27:34.733Z,29.2
2017-05-21T09:28:36.793Z,29.2
2017-05-21T09:29:36.913Z,29.2
2017-05-21T09:30:34.982Z,29.2
2017-05-21T09:31:34.983Z,29.2
2017-05-21T09:32:37.031Z,29.2
2017-05-21T09:33:37.087Z,29.2
2017-05-21T09:34:35.246Z,29.2
2017-05-21T09:35:35.359Z,29.2
2017-05-21T09:36:35.434Z,29.2
2017-05-21T09:37:35.376Z,29.2
2017-05-21T09:38:37.354Z,29.2
2017-05-21T09:39:37.507Z,29.2
2017-05-21T09:40:35.564Z,29.2
2017-05-21T09:41:37.526Z,29.2
2017-05-21T09:42:35.753Z,29.2
2017-05-21T09:43:35.678Z,29.2
2017-05-21T09:44:35.786Z,29.2
2017-05-21T09:45:37.691Z,29.2
2017-05-21T09:46:35.774Z,29.2
2017-05-21T09:47:35.826Z,29.3
2017-05-21T09:48:35.937Z,29.3
2017-05-21T09:49:37.884Z,29.2
2017-05-21T09:50:36.000Z,29.2
2017-05-21T09:51:37.857Z,29.3
2017-05-21T09:52:38.005Z,29.3
2017-05-21T09:53:36.188Z,29.3
2017-05-21T09:54:36.135Z,29.3
2017-05-21T09:55:36.161Z,29.3
2017-05-21T09:56:38.194Z,29.3
2017-05-21T09:57:36.209Z,29.3
2017-05-21T09:58:38.202Z,29.3
2017-05-21T09:59:38.295Z,29.3
2017-05-21T10:00:36.394Z,29.4
2017-05-21T10:01:36.500Z,29.4
2017-05-21T10:02:38.506Z,29.4
2017-05-21T10:03:36.594Z,29.4
2017-05-21T10:04:38.620Z,29.4
2017-05-21T10:05:36.823Z,29.4
2017-05-21T10:06:36.861Z,29.4
2017-05-21T10:07:36.878Z,29.4
2017-05-21T10:08:38.734Z,29.4
2017-05-21T10:09:36.949Z,29.4
2017-05-21T10:10:36.944Z,29.4
2017-05-21T10:11:38.935Z,29.4
2017-05-21T10:12:37.096Z,29.4
2017-05-21T10:13:37.054Z,29.4
2017-05-21T10:14:37.102Z,29.4
2017-05-21T10:15:37.141Z,29.4
2017-05-21T10:16:37.096Z,29.4
2017-05-21T10:17:39.146Z,29.4
2017-05-21T10:18:37.192Z,29.4
2017-05-21T10:19:37.344Z,29.4
2017-05-21T10:20:39.217Z,29.4
2017-05-21T10:21:37.462Z,29.4
2017-05-21T10:22:39.413Z,29.4
2017-05-21T10:23:37.417Z,29.4
2017-05-21T10:24:37.577Z,29.4
2017-05-21T10:25:39.408Z,29.4
2017-05-21T10:26:37.612Z,29.4
2017-05-21T10:27:39.524Z,29.4
2017-05-21T10:28:39.477Z,29.4
2017-05-21T10:29:39.576Z,29.4
2017-05-21T10:30:37.761Z,29.4
2017-05-21T10:31:39.616Z,29.4
2017-05-21T10:32:37.736Z,29.4
2017-05-21T10:33:37.766Z,29.4
2017-05-21T10:34:37.923Z,29.4
2017-05-21T10:35:37.928Z,29.4
2017-05-21T10:36:37.984Z,29.4
2017-05-21T10:37:39.916Z,29.4
2017-05-21T10:38:38.182Z,29.4
2017-05-21T10:39:40.070Z,29.4
2017-05-21T10:40:40.176Z,29.4
2017-05-21T10:41:38.229Z,29.4
2017-05-21T10:42:38.380Z,29.4
2017-05-21T10:43:40.232Z,29.4
2017-05-21T10:44:38.442Z,29.4
2017-05-21T10:45:38.756Z,29.4
2017-05-21T10:46:40.414Z,29.4
2017-05-21T10:47:38.676Z,29.4
2017-05-21T10:48:40.534Z,29.4
2017-05-21T10:49:40.492Z,29.4
2017-05-21T10:50:38.759Z,29.4
2017-05-21T10:51:40.809Z,29.4
2017-05-21T10:52:38.797Z,29.4
2017-05-21T10:53:40.710Z,29.4
2017-05-21T10:54:38.940Z,29.4
2017-05-21T10:55:38.966Z,29.4
2017-05-21T10:56:38.901Z,29.4
2017-05-21T10:57:39.184Z,29.4
2017-05-21T10:58:39.121Z,29.4
2017-05-21T10:59:41.097Z,29.4
2017-05-21T11:00:39.114Z,29.4
2017-05-21T11:01:41.144Z,29.4
2017-05-21T11:02:41.094Z,29.4
2017-05-21T11:03:39.461Z,29.4
2017-05-21T11:04:41.216Z,29.4
2017-05-21T11:05:41.311Z,29.4
2017-05-21T11:06:41.312Z,29.4
2017-05-21T11:07:41.353Z,29.4
2017-05-21T11:08:41.425Z,29.4
2017-05-21T11:09:41.637Z,29.4
2017-05-21T11:10:39.691Z,29.4
2017-05-21T11:11:39.608Z,29.4
2017-05-21T11:12:39.658Z,29.4
2017-05-21T11:13:41.598Z,29.4
2017-05-21T11:14:41.658Z,29.4
2017-05-21T11:15:42.062Z,29.4
2017-05-21T11:16:40.030Z,29.4
2017-05-21T11:17:41.897Z,29.4
2017-05-21T11:18:40.001Z,29.4
2017-05-21T11:19:40.072Z,29.4
2017-05-21T11:20:40.122Z,29.4
2017-05-21T11:21:42.394Z,29.4
2017-05-21T11:22:40.249Z,29.4
2017-05-21T11:23:40.368Z,29.4
2017-05-21T11:24:40.369Z,29.4
2017-05-21T11:25:42.405Z,29.4
2017-05-21T11:26:40.434Z,29.4
2017-05-21T11:27:40.731Z,29.4
2017-05-21T11:28:40.671Z,29.4
2017-05-21T11:29:42.527Z,29.4
2017-05-21T11:30:40.754Z,29.4
2017-05-21T11:31:40.850Z,29.4
2017-05-21T11:32:40.874Z,29.4
2017-05-21T11:33:41.047Z,29.4
2017-05-21T11:34:40.896Z,29.4
2017-05-21T11:35:42.924Z,29.4
2017-05-21T11:36:42.937Z,29.4
2017-05-21T11:37:40.935Z,29.4
2017-05-21T11:38:41.038Z,29.4
2017-05-21T11:39:43.213Z,29.4
2017-05-21T11:40:43.182Z,29.4
2017-05-21T11:41:43.126Z,29.4
2017-05-21T11:42:41.258Z,29.4
2017-05-21T11:43:41.338Z,29.4
2017-05-21T11:44:41.423Z,29.4
2017-05-21T11:45:43.622Z,29.4
2017-05-21T11:46:43.389Z,29.4
2017-05-21T11:47:43.557Z,29.4
2017-05-21T11:48:41.745Z,29.4
2017-05-21T11:49:43.722Z,29.4
2017-05-21T11:50:43.677Z,29.4
2017-05-21T11:51:43.907Z,29.4
2017-05-21T11:52:43.756Z,29.4
2017-05-21T11:53:41.968Z,29.4
2017-05-21T11:54:42.023Z,29.4
2017-05-21T11:55:43.955Z,29.4
2017-05-21T11:56:42.042Z,29.4
2017-05-21T11:57:42.223Z,29.4
2017-05-21T11:58:42.125Z,29.4
2017-05-21T11:59:44.096Z,29.4
2017-05-21T12:00:42.200Z,29.4
2017-05-21T12:01:44.071Z,29.4
2017-05-21T12:02:42.151Z,29.4
2017-05-21T12:03:42.489Z,29.4
2017-05-21T12:04:42.250Z,29.4
2017-05-21T12:05:42.274Z,29.4
2017-05-21T12:06:44.288Z,29.3
2017-05-21T12:07:44.289Z,29.4
2017-05-21T12:08:42.421Z,29.3
2017-05-21T12:09:42.750Z,29.3
2017-05-21T12:10:44.481Z,29.3
2017-05-21T12:11:44.426Z,29.3
2017-05-21T12:12:44.490Z,29.3
2017-05-21T12:13:42.585Z,29.3
2017-05-21T12:14:44.627Z,29.3
2017-05-21T12:15:43.091Z,29.3
2017-05-21T12:16:42.817Z,29.3
2017-05-21T12:17:42.863Z,29.3
2017-05-21T12:18:44.854Z,29.3
2017-05-21T12:19:42.991Z,29.3
2017-05-21T12:20:45.059Z,29.3
2017-05-21T12:21:43.241Z,29.3
2017-05-21T12:22:45.074Z,29.3
2017-05-21T12:23:43.157Z,29.3
2017-05-21T12:24:43.230Z,29.3
2017-05-21T12:25:43.419Z,29.3
2017-05-21T12:26:45.474Z,29.3
2017-05-21T12:27:43.562Z,29.3
2017-05-21T12:28:43.589Z,29.3
2017-05-21T12:29:43.534Z,29.3
2017-05-21T12:30:45.570Z,29.3
2017-05-21T12:31:45.490Z,29.3
2017-05-21T12:32:45.860Z,29.3
2017-05-21T12:33:43.728Z,29.3
2017-05-21T12:34:43.788Z,29.3
2017-05-21T12:35:45.651Z,29.3
2017-05-21T12:36:45.715Z,29.3
2017-05-21T12:37:45.848Z,29.3
2017-05-21T12:38:46.090Z,29.3
2017-05-21T12:39:45.900Z,29.3
2017-05-21T12:40:44.072Z,29.3
2017-05-21T12:41:44.207Z,29.3
2017-05-21T12:42:46.142Z,29.4
2017-05-21T12:43:44.169Z,29.3
2017-05-21T12:44:44.474Z,29.3
2017-05-21T12:45:44.232Z,29.3
2017-05-21T12:46:46.252Z,29.3
2017-05-21T12:47:46.288Z,29.3
2017-05-21T12:48:46.344Z,29.3
2017-05-21T12:49:46.276Z,29.3
2017-05-21T12:50:44.790Z,29.3
2017-05-21T12:51:44.455Z,29.3
2017-05-21T12:52:44.599Z,29.3
2017-05-21T12:53:44.578Z,29.3
2017-05-21T12:54:44.744Z,29.3
2017-05-21T12:55:46.674Z,29.3
2017-05-21T12:56:44.936Z,29.3
2017-05-21T12:57:46.740Z,29.3
2017-05-21T12:58:46.839Z,29.3
2017-05-21T12:59:46.825Z,29.3
2017-05-21T13:00:45.057Z,29.3
2017-05-21T13:01:47.064Z,29.3
2017-05-21T13:02:47.169Z,29.3
2017-05-21T13:03:47.153Z,29.3
2017-05-21T13:04:45.279Z,29.3
2017-05-21T13:05:47.166Z,29.3
2017-05-21T13:06:47.278Z,29.3
2017-05-21T13:07:45.369Z,29.3
2017-05-21T13:08:47.579Z,29.3
2017-05-21T13:09:47.576Z,29.3
2017-05-21T13:10:45.719Z,29.3
2017-05-21T13:11:47.654Z,29.3
2017-05-21T13:12:47.769Z,29.3
2017-05-21T13:13:45.892Z,29.3
2017-05-21T13:14:46.069Z,29.3
2017-05-21T13:15:46.031Z,29.3
2017-05-21T13:16:46.078Z,29.3
2017-05-21T13:17:47.878Z,29.3
2017-05-21T13:18:46.073Z,29.3
2017-05-21T13:19:46.056Z,29.3
2017-05-21T13:20:48.413Z,29.3
2017-05-21T13:21:48.107Z,29.3
2017-05-21T13:22:48.171Z,29.3
2017-05-21T13:23:48.364Z,29.3
2017-05-21T13:24:46.471Z,29.3